sensor_id;sensor_type;location;lat;lon;timestamp;pressure;altitude;pressure_sealevel;temperature;humidity
12219;BME280;6172;42.646;23.344;2023-07-20T00:02:02;94269.00;;;22.13;100.00
12219;BME280;6172;42.646;23.344;2023-07-20T00:04:31;94271.78;;;22.13;100.00
12219;BME280;6172;42.646;23.344;2023-07-20T00:06:57;94277.06;;;22.16;100.00
12219;BME280;6172;42.646;23.344;2023-07-20T00:09:24;94271.78;;;22.13;100.00
12219;BME280;6172;42.646;23.344;2023-07-20T00:11:52;94275.06;;;22.17;100.00
12219;BME280;6172;42.646;23.344;2023-07-20T00:14:19;94277.34;;;22.18;100.00
12219;BME280;6172;42.646;23.344;2023-07-20T00:16:49;94275.28;;;22.13;100.00
12219;BME280;6172;42.646;23.344;2023-07-20T00:19:21;94273.72;;;21.96;100.00
12219;BME280;6172;42.646;23.344;2023-07-20T00:21:48;94270.28;;;21.64;100.00
12219;BME280;6172;42.646;23.344;2023-07-20T00:24:15;94266.81;;;21.12;100.00
12219;BME280;6172;42.646;23.344;2023-07-20T00:26:42;94283.44;;;21.12;100.00
12219;BME280;6172;42.646;23.344;2023-07-20T00:29:09;94275.50;;;20.94;100.00
12219;BME280;6172;42.646;23.344;2023-07-20T00:31:36;94280.25;;;20.94;100.00
12219;BME280;6172;42.646;23.344;2023-07-20T00:34:05;94271.69;;;20.92;100.00
12219;BME280;6172;42.646;23.344;2023-07-20T00:36:32;94261.19;;;21.01;100.00
12219;BME280;6172;42.646;23.344;2023-07-20T00:38:59;94269.75;;;20.98;100.00
12219;BME280;6172;42.646;23.344;2023-07-20T00:41:26;94273.66;;;21.17;100.00
12219;BME280;6172;42.646;23.344;2023-07-20T00:43:55;94274.97;;;21.21;100.00
12219;BME280;6172;42.646;23.344;2023-07-20T00:46:22;94261.84;;;21.16;100.00
12219;BME280;6172;42.646;23.344;2023-07-20T00:48:50;94263.97;;;21.32;100.00
12219;BME280;6172;42.646;23.344;2023-07-20T00:51:20;94259.41;;;21.29;100.00
12219;BME280;6172;42.646;23.344;2023-07-20T00:53:47;94254.16;;;21.37;100.00
12219;BME280;6172;42.646;23.344;2023-07-20T00:56:15;94263.59;;;21.50;100.00
12219;BME280;6172;42.646;23.344;2023-07-20T00:58:41;94247.78;;;21.56;100.00
12219;BME280;6172;42.646;23.344;2023-07-20T01:01:08;94245.25;;;21.58;100.00
12219;BME280;6172;42.646;23.344;2023-07-20T01:03:37;94241.91;;;21.49;100.00
12219;BME280;6172;42.646;23.344;2023-07-20T01:06:12;94245.00;;;21.56;100.00
12219;BME280;6172;42.646;23.344;2023-07-20T01:08:49;94245.53;;;21.60;100.00
12219;BME280;6172;42.646;23.344;2023-07-20T01:11:27;94258.88;;;21.56;100.00
12219;BME280;6172;42.646;23.344;2023-07-20T01:13:58;94260.81;;;21.50;100.00
12219;BME280;6172;42.646;23.344;2023-07-20T01:16:27;94266.28;;;21.39;100.00
12219;BME280;6172;42.646;23.344;2023-07-20T01:18:54;94275.50;;;21.25;100.00
12219;BME280;6172;42.646;23.344;2023-07-20T01:21:26;94281.25;;;20.45;100.00
12219;BME280;6172;42.646;23.344;2023-07-20T01:24:18;94269.66;;;20.21;100.00
12219;BME280;6172;42.646;23.344;2023-07-20T01:27:11;94269.09;;;20.37;100.00
12219;BME280;6172;42.646;23.344;2023-07-20T01:30:03;94266.44;;;20.03;100.00
12219;BME280;6172;42.646;23.344;2023-07-20T01:32:36;94264.41;;;20.03;100.00
12219;BME280;6172;42.646;23.344;2023-07-20T01:35:07;94268.59;;;20.13;100.00
12219;BME280;6172;42.646;23.344;2023-07-20T01:37:37;94276.63;;;19.77;100.00
12219;BME280;6172;42.646;23.344;2023-07-20T01:40:06;94280.31;;;19.53;100.00
12219;BME280;6172;42.646;23.344;2023-07-20T01:42:33;94285.44;;;19.61;100.00
12219;BME280;6172;42.646;23.344;2023-07-20T01:45:00;94276.03;;;19.52;100.00
12219;BME280;6172;42.646;23.344;2023-07-20T01:47:27;94271.88;;;19.42;100.00
12219;BME280;6172;42.646;23.344;2023-07-20T01:49:55;94274.56;;;19.22;100.00
12219;BME280;6172;42.646;23.344;2023-07-20T01:52:22;94269.16;;;19.28;100.00
12219;BME280;6172;42.646;23.344;2023-07-20T01:54:49;94274.44;;;19.46;100.00
12219;BME280;6172;42.646;23.344;2023-07-20T01:57:16;94266.31;;;19.57;100.00
12219;BME280;6172;42.646;23.344;2023-07-20T01:59:43;94273.84;;;19.57;100.00
12219;BME280;6172;42.646;23.344;2023-07-20T02:02:10;94262.81;;;19.42;100.00
12219;BME280;6172;42.646;23.344;2023-07-20T02:04:37;94262.75;;;19.22;100.00
12219;BME280;6172;42.646;23.344;2023-07-20T02:07:05;94262.66;;;19.31;100.00
12219;BME280;6172;42.646;23.344;2023-07-20T02:09:32;94267.00;;;19.37;100.00
12219;BME280;6172;42.646;23.344;2023-07-20T02:11:59;94262.53;;;19.40;100.00
12219;BME280;6172;42.646;23.344;2023-07-20T02:14:26;94256.38;;;19.30;100.00
12219;BME280;6172;42.646;23.344;2023-07-20T02:16:53;94263.19;;;19.49;100.00
12219;BME280;6172;42.646;23.344;2023-07-20T02:19:24;94258.31;;;19.44;100.00
12219;BME280;6172;42.646;23.344;2023-07-20T02:21:51;94262.81;;;19.42;100.00
12219;BME280;6172;42.646;23.344;2023-07-20T02:24:20;94266.56;;;19.59;100.00
12219;BME280;6172;42.646;23.344;2023-07-20T02:26:46;94258.00;;;19.57;100.00
12219;BME280;6172;42.646;23.344;2023-07-20T02:29:14;94258.41;;;19.50;100.00
12219;BME280;6172;42.646;23.344;2023-07-20T02:31:41;94258.34;;;19.65;100.00
12219;BME280;6172;42.646;23.344;2023-07-20T02:34:08;94252.34;;;19.66;100.00
12219;BME280;6172;42.646;23.344;2023-07-20T02:36:35;94250.00;;;19.79;100.00
12219;BME280;6172;42.646;23.344;2023-07-20T02:39:02;94258.03;;;19.77;100.00
12219;BME280;6172;42.646;23.344;2023-07-20T02:41:33;94248.78;;;19.80;100.00
12219;BME280;6172;42.646;23.344;2023-07-20T02:44:00;94242.19;;;19.78;100.00
12219;BME280;6172;42.646;23.344;2023-07-20T02:46:29;94230.94;;;19.61;100.00
12219;BME280;6172;42.646;23.344;2023-07-20T02:48:56;94227.69;;;19.63;100.00
12219;BME280;6172;42.646;23.344;2023-07-20T02:51:23;94227.03;;;19.73;100.00
12219;BME280;6172;42.646;23.344;2023-07-20T02:53:49;94227.81;;;19.74;100.00
12219;BME280;6172;42.646;23.344;2023-07-20T02:56:16;94219.59;;;19.79;100.00
12219;BME280;6172;42.646;23.344;2023-07-20T02:58:45;94231.47;;;19.85;100.00
12219;BME280;6172;42.646;23.344;2023-07-20T03:01:12;94229.97;;;19.84;100.00
12219;BME280;6172;42.646;23.344;2023-07-20T03:03:41;94230.66;;;19.79;100.00
12219;BME280;6172;42.646;23.344;2023-07-20T03:06:12;94228.59;;;19.74;100.00
12219;BME280;6172;42.646;23.344;2023-07-20T03:08:40;94232.09;;;19.75;100.00
12219;BME280;6172;42.646;23.344;2023-07-20T03:11:12;94241.16;;;19.75;100.00
12219;BME280;6172;42.646;23.344;2023-07-20T03:13:43;94243.19;;;19.60;100.00
12219;BME280;6172;42.646;23.344;2023-07-20T03:16:13;94241.44;;;19.57;100.00
12219;BME280;6172;42.646;23.344;2023-07-20T03:18:43;94239.69;;;19.60;100.00
12219;BME280;6172;42.646;23.344;2023-07-20T03:21:10;94244.13;;;19.72;100.00
12219;BME280;6172;42.646;23.344;2023-07-20T03:23:38;94252.69;;;19.74;100.00
12219;BME280;6172;42.646;23.344;2023-07-20T03:26:05;94252.50;;;19.77;100.00
12219;BME280;6172;42.646;23.344;2023-07-20T03:28:33;94252.03;;;19.79;100.00
12219;BME280;6172;42.646;23.344;2023-07-20T03:31:00;94259.56;;;19.78;100.00
12219;BME280;6172;42.646;23.344;2023-07-20T03:33:30;94253.06;;;19.81;100.00
12219;BME280;6172;42.646;23.344;2023-07-20T03:35:57;94258.22;;;19.94;100.00
12219;BME280;6172;42.646;23.344;2023-07-20T03:38:24;94246.00;;;20.00;100.00
12219;BME280;6172;42.646;23.344;2023-07-20T03:40:53;94250.56;;;20.03;100.00
12219;BME280;6172;42.646;23.344;2023-07-20T03:43:21;94255.44;;;20.08;100.00
12219;BME280;6172;42.646;23.344;2023-07-20T03:45:49;94252.66;;;20.08;100.00
12219;BME280;6172;42.646;23.344;2023-07-20T03:48:17;94259.72;;;20.09;100.00
12219;BME280;6172;42.646;23.344;2023-07-20T03:50:46;94250.94;;;20.11;100.00
12219;BME280;6172;42.646;23.344;2023-07-20T03:53:13;94259.56;;;20.18;100.00
12219;BME280;6172;42.646;23.344;2023-07-20T03:55:41;94259.84;;;20.20;100.00
12219;BME280;6172;42.646;23.344;2023-07-20T03:58:07;94259.84;;;20.20;100.00
12219;BME280;6172;42.646;23.344;2023-07-20T04:00:35;94265.59;;;20.17;100.00
12219;BME280;6172;42.646;23.344;2023-07-20T04:03:01;94266.34;;;20.17;100.00
12219;BME280;6172;42.646;23.344;2023-07-20T04:05:28;94275.31;;;19.92;100.00
12219;BME280;6172;42.646;23.344;2023-07-20T04:07:56;94257.66;;;20.04;100.00
12219;BME280;6172;42.646;23.344;2023-07-20T04:10:24;94253.00;;;20.16;100.00
12219;BME280;6172;42.646;23.344;2023-07-20T04:12:51;94240.19;;;19.98;100.00
12219;BME280;6172;42.646;23.344;2023-07-20T04:15:18;94254.19;;;20.09;100.00
12219;BME280;6172;42.646;23.344;2023-07-20T04:17:45;94251.34;;;20.04;100.00
12219;BME280;6172;42.646;23.344;2023-07-20T04:20:13;94243.16;;;20.15;100.00
12219;BME280;6172;42.646;23.344;2023-07-20T04:22:40;94241.88;;;20.10;100.00
12219;BME280;6172;42.646;23.344;2023-07-20T04:25:09;94250.47;;;19.98;100.00
12219;BME280;6172;42.646;23.344;2023-07-20T04:27:36;94254.66;;;19.53;100.00
12219;BME280;6172;42.646;23.344;2023-07-20T04:30:04;94242.81;;;19.47;100.00
12219;BME280;6172;42.646;23.344;2023-07-20T04:32:31;94256.28;;;19.60;100.00
12219;BME280;6172;42.646;23.344;2023-07-20T04:35:00;94254.19;;;19.54;100.00
12219;BME280;6172;42.646;23.344;2023-07-20T04:37:28;94254.25;;;19.60;100.00
12219;BME280;6172;42.646;23.344;2023-07-20T04:39:56;94244.47;;;19.79;100.00
12219;BME280;6172;42.646;23.344;2023-07-20T04:42:24;94234.66;;;19.78;100.00
12219;BME280;6172;42.646;23.344;2023-07-20T04:44:54;94233.69;;;19.81;100.00
12219;BME280;6172;42.646;23.344;2023-07-20T04:47:22;94218.97;;;19.90;100.00
12219;BME280;6172;42.646;23.344;2023-07-20T04:49:51;94250.22;;;19.96;100.00
12219;BME280;6172;42.646;23.344;2023-07-20T04:52:30;94226.06;;;19.96;100.00
12219;BME280;6172;42.646;23.344;2023-07-20T04:54:58;94232.63;;;20.13;100.00
12219;BME280;6172;42.646;23.344;2023-07-20T04:57:28;94232.44;;;20.22;100.00
12219;BME280;6172;42.646;23.344;2023-07-20T04:59:55;94232.94;;;20.21;100.00
12219;BME280;6172;42.646;23.344;2023-07-20T05:02:22;94236.19;;;20.19;100.00
12219;BME280;6172;42.646;23.344;2023-07-20T05:04:50;94236.66;;;20.18;100.00
12219;BME280;6172;42.646;23.344;2023-07-20T05:07:18;94222.63;;;20.21;100.00
12219;BME280;6172;42.646;23.344;2023-07-20T05:09:46;94222.88;;;20.43;100.00
12219;BME280;6172;42.646;23.344;2023-07-20T05:12:13;94219.84;;;20.72;100.00
12219;BME280;6172;42.646;23.344;2023-07-20T05:14:42;94229.47;;;20.77;100.00
12219;BME280;6172;42.646;23.344;2023-07-20T05:17:08;94229.81;;;20.84;100.00
12219;BME280;6172;42.646;23.344;2023-07-20T05:19:35;94230.22;;;21.03;100.00
12219;BME280;6172;42.646;23.344;2023-07-20T05:22:02;94224.06;;;21.19;100.00
12219;BME280;6172;42.646;23.344;2023-07-20T05:24:30;94234.41;;;21.24;100.00
12219;BME280;6172;42.646;23.344;2023-07-20T05:26:57;94223.88;;;20.97;100.00
12219;BME280;6172;42.646;23.344;2023-07-20T05:29:24;94239.03;;;21.32;100.00
12219;BME280;6172;42.646;23.344;2023-07-20T05:31:53;94233.38;;;21.52;100.00
12219;BME280;6172;42.646;23.344;2023-07-20T05:34:21;94250.97;;;21.86;100.00
12219;BME280;6172;42.646;23.344;2023-07-20T05:37:10;94244.28;;;22.15;100.00
12219;BME280;6172;42.646;23.344;2023-07-20T05:39:37;94245.16;;;22.43;100.00
12219;BME280;6172;42.646;23.344;2023-07-20T05:42:05;94244.44;;;22.59;100.00
12219;BME280;6172;42.646;23.344;2023-07-20T05:44:31;94254.81;;;22.64;100.00
12219;BME280;6172;42.646;23.344;2023-07-20T05:47:00;94250.28;;;22.83;100.00
12219;BME280;6172;42.646;23.344;2023-07-20T05:49:28;94253.88;;;23.05;100.00
12219;BME280;6172;42.646;23.344;2023-07-20T05:51:55;94245.41;;;24.05;100.00
12219;BME280;6172;42.646;23.344;2023-07-20T05:54:24;94251.81;;;25.32;90.25
12219;BME280;6172;42.646;23.344;2023-07-20T05:56:51;94251.19;;;27.02;74.40
12219;BME280;6172;42.646;23.344;2023-07-20T05:59:19;94244.81;;;28.36;63.09
12219;BME280;6172;42.646;23.344;2023-07-20T06:01:46;94238.56;;;29.36;56.43
12219;BME280;6172;42.646;23.344;2023-07-20T06:04:15;94236.47;;;30.47;53.30
12219;BME280;6172;42.646;23.344;2023-07-20T06:06:43;94227.81;;;31.46;48.60
12219;BME280;6172;42.646;23.344;2023-07-20T06:09:10;94235.59;;;32.83;43.68
12219;BME280;6172;42.646;23.344;2023-07-20T06:11:37;94232.28;;;33.16;42.09
12219;BME280;6172;42.646;23.344;2023-07-20T06:14:04;94230.66;;;32.28;42.14
12219;BME280;6172;42.646;23.344;2023-07-20T06:16:31;94228.63;;;33.63;39.45
12219;BME280;6172;42.646;23.344;2023-07-20T06:18:59;94225.53;;;33.44;40.09
12219;BME280;6172;42.646;23.344;2023-07-20T06:21:28;94222.81;;;34.44;37.30
12219;BME280;6172;42.646;23.344;2023-07-20T06:23:54;94210.88;;;35.31;35.14
12219;BME280;6172;42.646;23.344;2023-07-20T06:26:21;94209.31;;;35.47;34.62
12219;BME280;6172;42.646;23.344;2023-07-20T06:28:48;94202.63;;;35.52;34.61
12219;BME280;6172;42.646;23.344;2023-07-20T06:31:16;94203.31;;;36.15;33.15
12219;BME280;6172;42.646;23.344;2023-07-20T06:33:43;94201.34;;;35.62;33.56
12219;BME280;6172;42.646;23.344;2023-07-20T06:36:10;94203.78;;;36.21;32.21
12219;BME280;6172;42.646;23.344;2023-07-20T06:38:38;94207.38;;;33.54;34.41
12219;BME280;6172;42.646;23.344;2023-07-20T06:41:05;94212.16;;;33.44;34.73
12219;BME280;6172;42.646;23.344;2023-07-20T06:43:32;94205.19;;;34.36;34.09
12219;BME280;6172;42.646;23.344;2023-07-20T06:45:59;94197.06;;;33.17;35.41
12219;BME280;6172;42.646;23.344;2023-07-20T06:48:26;94210.47;;;34.74;34.06
12219;BME280;6172;42.646;23.344;2023-07-20T06:50:52;94214.66;;;33.65;35.46
12219;BME280;6172;42.646;23.344;2023-07-20T06:53:20;94207.19;;;32.88;37.16
12219;BME280;6172;42.646;23.344;2023-07-20T06:55:48;94197.31;;;33.36;35.67
12219;BME280;6172;42.646;23.344;2023-07-20T06:58:16;94198.25;;;34.12;34.79
12219;BME280;6172;42.646;23.344;2023-07-20T07:00:43;94213.97;;;34.65;34.38
12219;BME280;6172;42.646;23.344;2023-07-20T07:03:10;94227.16;;;34.96;33.81
12219;BME280;6172;42.646;23.344;2023-07-20T07:05:36;94241.72;;;35.10;34.62
12219;BME280;6172;42.646;23.344;2023-07-20T07:08:04;94237.72;;;34.96;34.82
12219;BME280;6172;42.646;23.344;2023-07-20T07:10:31;94226.16;;;34.50;35.32
12219;BME280;6172;42.646;23.344;2023-07-20T07:12:59;94235.72;;;33.39;37.41
12219;BME280;6172;42.646;23.344;2023-07-20T07:15:26;94239.63;;;32.49;38.31
12219;BME280;6172;42.646;23.344;2023-07-20T07:17:53;94264.50;;;31.98;39.69
12219;BME280;6172;42.646;23.344;2023-07-20T07:20:20;94267.63;;;31.50;42.05
12219;BME280;6172;42.646;23.344;2023-07-20T07:22:47;94268.66;;;32.20;40.79
12219;BME280;6172;42.646;23.344;2023-07-20T07:25:14;94270.59;;;33.66;38.08
12219;BME280;6172;42.646;23.344;2023-07-20T07:27:41;94272.63;;;34.22;37.28
12219;BME280;6172;42.646;23.344;2023-07-20T07:30:11;94273.22;;;34.97;36.59
12219;BME280;6172;42.646;23.344;2023-07-20T07:32:38;94276.25;;;35.42;35.56
12219;BME280;6172;42.646;23.344;2023-07-20T07:35:05;94273.44;;;33.34;38.90
12219;BME280;6172;42.646;23.344;2023-07-20T07:37:32;94269.56;;;34.28;37.52
12219;BME280;6172;42.646;23.344;2023-07-20T07:40:00;94260.63;;;33.90;38.22
12219;BME280;6172;42.646;23.344;2023-07-20T07:42:28;94255.44;;;33.47;38.19
12219;BME280;6172;42.646;23.344;2023-07-20T07:44:55;94256.31;;;32.85;40.26
12219;BME280;6172;42.646;23.344;2023-07-20T07:47:23;94265.31;;;34.78;36.96
12219;BME280;6172;42.646;23.344;2023-07-20T07:49:50;94254.84;;;33.80;37.99
12219;BME280;6172;42.646;23.344;2023-07-20T07:52:17;94245.16;;;34.57;36.58
12219;BME280;6172;42.646;23.344;2023-07-20T07:54:44;94225.44;;;34.67;36.68
12219;BME280;6172;42.646;23.344;2023-07-20T07:57:11;94221.66;;;34.30;36.73
12219;BME280;6172;42.646;23.344;2023-07-20T07:59:39;94223.25;;;34.40;36.85
12219;BME280;6172;42.646;23.344;2023-07-20T08:02:06;94230.84;;;35.33;36.08
12219;BME280;6172;42.646;23.344;2023-07-20T08:04:34;94211.06;;;35.16;36.56
12219;BME280;6172;42.646;23.344;2023-07-20T08:07:05;94220.16;;;35.41;35.86
12219;BME280;6172;42.646;23.344;2023-07-20T08:09:31;94246.91;;;35.21;35.34
12219;BME280;6172;42.646;23.344;2023-07-20T08:11:59;94252.91;;;34.57;36.73
12219;BME280;6172;42.646;23.344;2023-07-20T08:14:26;94261.09;;;34.03;38.40
12219;BME280;6172;42.646;23.344;2023-07-20T08:16:53;94284.25;;;34.09;38.55
12219;BME280;6172;42.646;23.344;2023-07-20T08:19:20;94278.22;;;34.89;37.50
12219;BME280;6172;42.646;23.344;2023-07-20T08:21:48;94274.88;;;34.83;37.48
12219;BME280;6172;42.646;23.344;2023-07-20T08:24:15;94277.97;;;34.18;39.00
12219;BME280;6172;42.646;23.344;2023-07-20T08:26:42;94286.91;;;34.32;38.21
12219;BME280;6172;42.646;23.344;2023-07-20T08:29:09;94286.38;;;34.68;38.28
12219;BME280;6172;42.646;23.344;2023-07-20T08:31:35;94277.13;;;33.76;39.33
12219;BME280;6172;42.646;23.344;2023-07-20T08:34:02;94284.00;;;34.15;37.96
12219;BME280;6172;42.646;23.344;2023-07-20T08:36:29;94277.94;;;33.69;39.04
12219;BME280;6172;42.646;23.344;2023-07-20T08:38:59;94277.94;;;33.94;37.43
12219;BME280;6172;42.646;23.344;2023-07-20T08:41:28;94270.03;;;33.68;36.80
12219;BME280;6172;42.646;23.344;2023-07-20T08:43:56;94273.03;;;32.83;37.70
12219;BME280;6172;42.646;23.344;2023-07-20T08:46:26;94268.41;;;33.10;37.43
12219;BME280;6172;42.646;23.344;2023-07-20T08:48:54;94262.59;;;33.08;36.23
12219;BME280;6172;42.646;23.344;2023-07-20T08:51:21;94259.47;;;32.89;36.00
12219;BME280;6172;42.646;23.344;2023-07-20T08:53:50;94273.03;;;32.83;36.04
12219;BME280;6172;42.646;23.344;2023-07-20T08:56:19;94267.69;;;32.40;35.76
12219;BME280;6172;42.646;23.344;2023-07-20T08:58:47;94263.72;;;32.35;36.22
12219;BME280;6172;42.646;23.344;2023-07-20T09:01:14;94256.97;;;32.31;36.31
12219;BME280;6172;42.646;23.344;2023-07-20T09:03:42;94251.34;;;32.01;37.42
12219;BME280;6172;42.646;23.344;2023-07-20T09:06:13;94251.94;;;31.92;38.42
12219;BME280;6172;42.646;23.344;2023-07-20T09:08:40;94253.00;;;31.59;37.73
12219;BME280;6172;42.646;23.344;2023-07-20T09:11:07;94249.81;;;30.97;39.39
12219;BME280;6172;42.646;23.344;2023-07-20T09:13:37;94247.31;;;31.29;37.92
12219;BME280;6172;42.646;23.344;2023-07-20T09:16:04;94255.25;;;31.53;38.13
12219;BME280;6172;42.646;23.344;2023-07-20T09:18:31;94248.09;;;31.37;38.43
12219;BME280;6172;42.646;23.344;2023-07-20T09:21:01;94249.19;;;31.34;38.45
12219;BME280;6172;42.646;23.344;2023-07-20T09:23:33;94244.34;;;31.57;38.37
12219;BME280;6172;42.646;23.344;2023-07-20T09:26:00;94231.75;;;31.43;38.44
12219;BME280;6172;42.646;23.344;2023-07-20T09:28:27;94233.72;;;31.12;38.91
12219;BME280;6172;42.646;23.344;2023-07-20T09:30:55;94227.81;;;31.46;37.93
12219;BME280;6172;42.646;23.344;2023-07-20T09:33:24;94239.81;;;31.46;37.85
12219;BME280;6172;42.646;23.344;2023-07-20T09:35:51;94235.78;;;30.61;40.31
12219;BME280;6172;42.646;23.344;2023-07-20T09:38:17;94238.09;;;31.21;39.90
12219;BME280;6172;42.646;23.344;2023-07-20T09:40:44;94232.75;;;31.68;38.54
12219;BME280;6172;42.646;23.344;2023-07-20T09:43:12;94231.03;;;31.95;37.24
12219;BME280;6172;42.646;23.344;2023-07-20T09:45:42;94229.00;;;31.73;36.74
12219;BME280;6172;42.646;23.344;2023-07-20T09:48:11;94213.91;;;31.33;36.28
12219;BME280;6172;42.646;23.344;2023-07-20T09:50:42;94223.72;;;32.07;35.81
12219;BME280;6172;42.646;23.344;2023-07-20T09:53:11;94218.47;;;31.88;36.43
12219;BME280;6172;42.646;23.344;2023-07-20T09:55:40;94212.66;;;31.79;36.79
12219;BME280;6172;42.646;23.344;2023-07-20T09:58:08;94196.06;;;32.28;36.56
12219;BME280;6172;42.646;23.344;2023-07-20T10:00:36;94186.22;;;32.44;35.33
12219;BME280;6172;42.646;23.344;2023-07-20T10:03:04;94183.34;;;31.67;36.63
12219;BME280;6172;42.646;23.344;2023-07-20T10:05:36;94188.66;;;30.97;37.05
12219;BME280;6172;42.646;23.344;2023-07-20T10:08:10;94186.66;;;30.62;38.00
12219;BME280;6172;42.646;23.344;2023-07-20T10:10:38;94180.94;;;30.40;38.02
12219;BME280;6172;42.646;23.344;2023-07-20T10:13:10;94187.56;;;30.21;37.82
12219;BME280;6172;42.646;23.344;2023-07-20T10:15:45;94190.66;;;29.82;37.53
12219;BME280;6172;42.646;23.344;2023-07-20T10:18:16;94196.38;;;29.49;37.75
12219;BME280;6172;42.646;23.344;2023-07-20T10:20:47;94190.28;;;29.58;38.07
12219;BME280;6172;42.646;23.344;2023-07-20T10:23:16;94181.84;;;29.78;37.96
12219;BME280;6172;42.646;23.344;2023-07-20T10:25:43;94204.25;;;29.50;38.28
12219;BME280;6172;42.646;23.344;2023-07-20T10:28:11;94206.88;;;29.97;37.59
12219;BME280;6172;42.646;23.344;2023-07-20T10:30:38;94212.94;;;29.39;39.29
12219;BME280;6172;42.646;23.344;2023-07-20T10:33:06;94203.22;;;29.81;38.61
12219;BME280;6172;42.646;23.344;2023-07-20T10:35:52;94194.69;;;29.94;38.31
12219;BME280;6172;42.646;23.344;2023-07-20T10:38:19;94193.63;;;30.33;38.20
12219;BME280;6172;42.646;23.344;2023-07-20T10:40:54;94200.78;;;30.70;38.36
12219;BME280;6172;42.646;23.344;2023-07-20T10:43:21;94193.28;;;30.72;38.35
12219;BME280;6172;42.646;23.344;2023-07-20T10:45:50;94195.25;;;30.21;39.14
12219;BME280;6172;42.646;23.344;2023-07-20T10:48:18;94173.88;;;29.90;40.44
12219;BME280;6172;42.646;23.344;2023-07-20T10:51:10;94132.84;;;30.15;39.28
12219;BME280;6172;42.646;23.344;2023-07-20T10:53:38;94110.78;;;29.98;39.92
12219;BME280;6172;42.646;23.344;2023-07-20T10:56:06;94155.97;;;30.08;40.12
12219;BME280;6172;42.646;23.344;2023-07-20T10:58:34;94159.72;;;29.75;40.71
12219;BME280;6172;42.646;23.344;2023-07-20T11:01:02;94153.63;;;30.12;40.32
12219;BME280;6172;42.646;23.344;2023-07-20T11:03:30;94139.25;;;29.95;40.88
12219;BME280;6172;42.646;23.344;2023-07-20T11:05:58;94128.91;;;29.90;40.72
12219;BME280;6172;42.646;23.344;2023-07-20T11:08:42;94123.09;;;29.39;41.74
12219;BME280;6172;42.646;23.344;2023-07-20T11:11:27;94124.63;;;29.40;43.03
12219;BME280;6172;42.646;23.344;2023-07-20T11:13:55;94117.91;;;29.99;41.74
12219;BME280;6172;42.646;23.344;2023-07-20T11:16:40;94129.19;;;30.07;41.44
12219;BME280;6172;42.646;23.344;2023-07-20T11:19:14;94131.56;;;30.67;39.88
12219;BME280;6172;42.646;23.344;2023-07-20T11:21:43;94127.34;;;30.45;41.05
12219;BME280;6172;42.646;23.344;2023-07-20T11:24:11;94120.31;;;30.67;40.10
12219;BME280;6172;42.646;23.344;2023-07-20T11:26:42;94120.47;;;30.69;40.02
12219;BME280;6172;42.646;23.344;2023-07-20T11:29:09;94119.03;;;30.98;40.14
12219;BME280;6172;42.646;23.344;2023-07-20T11:31:37;94097.28;;;31.06;40.29
12219;BME280;6172;42.646;23.344;2023-07-20T11:34:05;94104.25;;;31.35;39.64
12219;BME280;6172;42.646;23.344;2023-07-20T11:36:33;94093.66;;;32.03;38.38
12219;BME280;6172;42.646;23.344;2023-07-20T11:39:00;94088.59;;;31.94;38.79
12219;BME280;6172;42.646;23.344;2023-07-20T11:41:31;94092.53;;;32.06;38.04
12219;BME280;6172;42.646;23.344;2023-07-20T11:43:59;94085.41;;;32.52;37.30
12219;BME280;6172;42.646;23.344;2023-07-20T11:46:27;94080.19;;;32.41;37.26
12219;BME280;6172;42.646;23.344;2023-07-20T11:48:58;94087.69;;;32.46;37.78
12219;BME280;6172;42.646;23.344;2023-07-20T11:51:29;94082.38;;;32.03;38.35
12219;BME280;6172;42.646;23.344;2023-07-20T11:53:56;94088.00;;;32.10;37.79
12219;BME280;6172;42.646;23.344;2023-07-20T11:56:26;94079.59;;;31.88;38.51
12219;BME280;6172;42.646;23.344;2023-07-20T11:58:57;94071.13;;;32.03;38.45
12219;BME280;6172;42.646;23.344;2023-07-20T12:01:25;94072.25;;;32.00;38.39
12219;BME280;6172;42.646;23.344;2023-07-20T12:03:55;94065.97;;;32.24;36.90
12219;BME280;6172;42.646;23.344;2023-07-20T12:06:23;94074.47;;;32.09;37.59
12219;BME280;6172;42.646;23.344;2023-07-20T12:08:50;94065.06;;;32.14;37.56
12219;BME280;6172;42.646;23.344;2023-07-20T12:11:31;94067.75;;;32.44;37.42
12219;BME280;6172;42.646;23.344;2023-07-20T12:14:00;94057.09;;;32.35;36.87
12219;BME280;6172;42.646;23.344;2023-07-20T12:16:29;94061.22;;;32.34;36.69
12219;BME280;6172;42.646;23.344;2023-07-20T12:19:03;94057.09;;;32.35;37.47
12219;BME280;6172;42.646;23.344;2023-07-20T12:21:30;94056.31;;;32.42;35.25
12219;BME280;6172;42.646;23.344;2023-07-20T12:23:57;94044.53;;;32.68;34.29
12219;BME280;6172;42.646;23.344;2023-07-20T12:26:25;94049.72;;;32.79;34.02
12219;BME280;6172;42.646;23.344;2023-07-20T12:28:52;94053.47;;;32.82;33.50
12219;BME280;6172;42.646;23.344;2023-07-20T12:31:21;94041.34;;;32.89;32.59
12219;BME280;6172;42.646;23.344;2023-07-20T12:33:49;94044.59;;;33.10;32.33
12219;BME280;6172;42.646;23.344;2023-07-20T12:36:16;94052.44;;;33.19;31.84
12219;BME280;6172;42.646;23.344;2023-07-20T12:38:43;94047.50;;;33.27;32.67
12219;BME280;6172;42.646;23.344;2023-07-20T12:41:11;94038.78;;;33.32;31.08
12219;BME280;6172;42.646;23.344;2023-07-20T12:43:39;94036.81;;;33.42;31.26
12219;BME280;6172;42.646;23.344;2023-07-20T12:46:06;94041.69;;;33.66;31.23
12219;BME280;6172;42.646;23.344;2023-07-20T12:48:36;94032.19;;;33.54;31.22
12219;BME280;6172;42.646;23.344;2023-07-20T12:51:05;94037.75;;;33.20;30.43
12219;BME280;6172;42.646;23.344;2023-07-20T12:53:33;94030.66;;;33.36;29.73
12219;BME280;6172;42.646;23.344;2023-07-20T12:56:00;94033.81;;;32.67;29.43
12219;BME280;6172;42.646;23.344;2023-07-20T12:58:28;94036.81;;;32.69;29.42
12219;BME280;6172;42.646;23.344;2023-07-20T13:00:55;94033.38;;;33.02;29.22
12219;BME280;6172;42.646;23.344;2023-07-20T13:03:22;94024.66;;;33.08;29.54